sensor_id;sensor_type;location;lat;lon;timestamp;P1;durP1;ratioP1;P2;durP2;ratioP2
78453;SDS011;67750;55.832;49.124;2023-11-21T00:01:02;7.58;;;3.35;;
78453;SDS011;67750;55.832;49.124;2023-11-21T00:03:32;6.08;;;2.90;;
78453;SDS011;67750;55.832;49.124;2023-11-21T00:06:02;9.00;;;3.35;;
78453;SDS011;67750;55.832;49.124;2023-11-21T00:08:34;6.60;;;3.10;;
78453;SDS011;67750;55.832;49.124;2023-11-21T00:11:03;7.85;;;3.02;;
78453;SDS011;67750;55.832;49.124;2023-11-21T00:13:33;6.87;;;2.90;;
78453;SDS011;67750;55.832;49.124;2023-11-21T00:16:02;7.30;;;3.27;;
78453;SDS011;67750;55.832;49.124;2023-11-21T00:18:32;6.53;;;2.67;;
78453;SDS011;67750;55.832;49.124;2023-11-21T00:21:01;7.22;;;2.98;;
78453;SDS011;67750;55.832;49.124;2023-11-21T00:23:30;5.87;;;2.60;;
78453;SDS011;67750;55.832;49.124;2023-11-21T00:26:00;9.90;;;3.45;;
78453;SDS011;67750;55.832;49.124;2023-11-21T00:28:31;6.30;;;3.05;;
78453;SDS011;67750;55.832;49.124;2023-11-21T00:31:00;6.75;;;2.85;;
78453;SDS011;67750;55.832;49.124;2023-11-21T00:33:31;5.78;;;2.80;;
78453;SDS011;67750;55.832;49.124;2023-11-21T00:36:01;6.40;;;3.05;;
78453;SDS011;67750;55.832;49.124;2023-11-21T00:38:30;6.47;;;3.10;;
78453;SDS011;67750;55.832;49.124;2023-11-21T00:41:00;6.92;;;3.08;;
78453;SDS011;67750;55.832;49.124;2023-11-21T00:43:29;4.40;;;2.60;;
78453;SDS011;67750;55.832;49.124;2023-11-21T00:46:03;7.58;;;3.05;;
78453;SDS011;67750;55.832;49.124;2023-11-21T00:48:33;5.30;;;2.52;;
78453;SDS011;67750;55.832;49.124;2023-11-21T00:51:03;6.10;;;2.90;;
78453;SDS011;67750;55.832;49.124;2023-11-21T00:53:33;5.15;;;2.83;;
78453;SDS011;67750;55.832;49.124;2023-11-21T00:56:02;8.63;;;3.17;;
78453;SDS011;67750;55.832;49.124;2023-11-21T00:58:32;5.08;;;2.75;;
78453;SDS011;67750;55.832;49.124;2023-11-21T01:01:02;5.85;;;2.55;;
78453;SDS011;67750;55.832;49.124;2023-11-21T01:03:32;7.12;;;2.70;;
78453;SDS011;67750;55.832;49.124;2023-11-21T01:06:01;6.97;;;2.67;;
78453;SDS011;67750;55.832;49.124;2023-11-21T01:08:32;8.50;;;2.85;;
78453;SDS011;67750;55.832;49.124;2023-11-21T01:11:03;6.35;;;2.60;;
78453;SDS011;67750;55.832;49.124;2023-11-21T01:13:34;4.60;;;2.40;;
78453;SDS011;67750;55.832;49.124;2023-11-21T01:16:04;4.67;;;2.35;;
78453;SDS011;67750;55.832;49.124;2023-11-21T01:18:34;4.75;;;2.30;;
78453;SDS011;67750;55.832;49.124;2023-11-21T01:21:05;5.35;;;2.52;;
78453;SDS011;67750;55.832;49.124;2023-11-21T01:23:36;5.95;;;2.87;;
78453;SDS011;67750;55.832;49.124;2023-11-21T01:26:05;4.72;;;2.35;;
78453;SDS011;67750;55.832;49.124;2023-11-21T01:28:36;7.45;;;2.92;;
78453;SDS011;67750;55.832;49.124;2023-11-21T01:31:06;6.35;;;2.62;;
78453;SDS011;67750;55.832;49.124;2023-11-21T01:33:35;5.85;;;2.60;;
78453;SDS011;67750;55.832;49.124;2023-11-21T01:36:05;4.83;;;2.50;;
78453;SDS011;67750;55.832;49.124;2023-11-21T01:38:35;4.35;;;2.47;;
78453;SDS011;67750;55.832;49.124;2023-11-21T01:41:05;6.05;;;2.72;;
78453;SDS011;67750;55.832;49.124;2023-11-21T01:43:34;6.03;;;3.05;;
78453;SDS011;67750;55.832;49.124;2023-11-21T01:46:04;4.95;;;2.67;;
78453;SDS011;67750;55.832;49.124;2023-11-21T01:48:34;4.55;;;2.20;;
78453;SDS011;67750;55.832;49.124;2023-11-21T01:51:05;5.62;;;2.60;;
78453;SDS011;67750;55.832;49.124;2023-11-21T01:53:35;4.30;;;2.40;;
78453;SDS011;67750;55.832;49.124;2023-11-21T01:56:05;3.52;;;2.20;;
78453;SDS011;67750;55.832;49.124;2023-11-21T01:58:36;5.75;;;2.75;;
78453;SDS011;67750;55.832;49.124;2023-11-21T02:01:05;5.10;;;2.70;;
78453;SDS011;67750;55.832;49.124;2023-11-21T02:03:36;6.33;;;2.30;;
78453;SDS011;67750;55.832;49.124;2023-11-21T02:06:08;3.98;;;2.30;;
78453;SDS011;67750;55.832;49.124;2023-11-21T02:08:37;5.87;;;2.40;;
78453;SDS011;67750;55.832;49.124;2023-11-21T02:11:08;6.08;;;2.92;;
78453;SDS011;67750;55.832;49.124;2023-11-21T02:13:40;5.65;;;2.35;;
78453;SDS011;67750;55.832;49.124;2023-11-21T02:16:11;3.98;;;2.58;;
78453;SDS011;67750;55.832;49.124;2023-11-21T02:18:41;6.72;;;2.62;;
78453;SDS011;67750;55.832;49.124;2023-11-21T02:21:11;4.80;;;2.17;;
78453;SDS011;67750;55.832;49.124;2023-11-21T02:23:41;5.62;;;2.17;;
78453;SDS011;67750;55.832;49.124;2023-11-21T02:26:11;5.90;;;2.52;;
78453;SDS011;67750;55.832;49.124;2023-11-21T02:28:41;5.55;;;2.10;;
78453;SDS011;67750;55.832;49.124;2023-11-21T02:31:10;5.72;;;2.60;;
78453;SDS011;67750;55.832;49.124;2023-11-21T02:33:40;4.25;;;2.15;;
78453;SDS011;67750;55.832;49.124;2023-11-21T02:36:10;5.62;;;2.22;;
78453;SDS011;67750;55.832;49.124;2023-11-21T02:38:40;5.80;;;2.37;;
78453;SDS011;67750;55.832;49.124;2023-11-21T02:41:09;5.28;;;2.80;;
78453;SDS011;67750;55.832;49.124;2023-11-21T02:43:39;4.42;;;2.20;;
78453;SDS011;67750;55.832;49.124;2023-11-21T02:46:08;5.95;;;2.47;;
78453;SDS011;67750;55.832;49.124;2023-11-21T02:48:39;4.05;;;2.17;;
78453;SDS011;67750;55.832;49.124;2023-11-21T02:51:09;5.87;;;2.10;;
78453;SDS011;67750;55.832;49.124;2023-11-21T02:53:39;6.40;;;2.10;;
78453;SDS011;67750;55.832;49.124;2023-11-21T02:56:09;6.37;;;2.87;;
78453;SDS011;67750;55.832;49.124;2023-11-21T03:01:29;7.17;;;2.70;;
78453;SDS011;67750;55.832;49.124;2023-11-21T03:03:58;5.87;;;2.25;;
78453;SDS011;67750;55.832;49.124;2023-11-21T03:06:28;6.75;;;2.70;;
78453;SDS011;67750;55.832;49.124;2023-11-21T03:08:58;4.95;;;2.27;;
78453;SDS011;67750;55.832;49.124;2023-11-21T03:11:28;3.67;;;1.95;;
78453;SDS011;67750;55.832;49.124;2023-11-21T03:14:00;6.65;;;2.47;;
78453;SDS011;67750;55.832;49.124;2023-11-21T03:16:29;6.08;;;2.65;;
78453;SDS011;67750;55.832;49.124;2023-11-21T03:18:59;6.62;;;2.50;;
78453;SDS011;67750;55.832;49.124;2023-11-21T03:21:28;5.25;;;2.72;;
78453;SDS011;67750;55.832;49.124;2023-11-21T03:23:58;5.55;;;2.37;;
78453;SDS011;67750;55.832;49.124;2023-11-21T03:26:27;5.92;;;2.40;;
78453;SDS011;67750;55.832;49.124;2023-11-21T03:28:57;7.35;;;2.62;;
78453;SDS011;67750;55.832;49.124;2023-11-21T03:31:26;5.40;;;2.72;;
78453;SDS011;67750;55.832;49.124;2023-11-21T03:33:56;5.47;;;2.52;;
78453;SDS011;67750;55.832;49.124;2023-11-21T03:36:25;6.30;;;2.52;;
78453;SDS011;67750;55.832;49.124;2023-11-21T03:38:55;4.65;;;2.22;;
78453;SDS011;67750;55.832;49.124;2023-11-21T03:41:24;6.25;;;2.35;;
78453;SDS011;67750;55.832;49.124;2023-11-21T03:43:54;5.30;;;2.45;;
78453;SDS011;67750;55.832;49.124;2023-11-21T03:46:23;4.78;;;2.65;;
78453;SDS011;67750;55.832;49.124;2023-11-21T03:48:53;5.67;;;2.58;;
78453;SDS011;67750;55.832;49.124;2023-11-21T03:51:22;6.30;;;2.83;;
78453;SDS011;67750;55.832;49.124;2023-11-21T03:53:52;6.72;;;2.45;;
78453;SDS011;67750;55.832;49.124;2023-11-21T03:56:21;4.72;;;2.52;;
78453;SDS011;67750;55.832;49.124;2023-11-21T03:58:52;5.83;;;2.50;;
78453;SDS011;67750;55.832;49.124;2023-11-21T04:01:21;6.80;;;2.90;;
78453;SDS011;67750;55.832;49.124;2023-11-21T04:03:51;6.12;;;2.67;;
78453;SDS011;67750;55.832;49.124;2023-11-21T04:06:20;5.87;;;2.62;;
78453;SDS011;67750;55.832;49.124;2023-11-21T04:08:50;5.83;;;3.27;;
78453;SDS011;67750;55.832;49.124;2023-11-21T04:11:19;5.33;;;2.55;;
78453;SDS011;67750;55.832;49.124;2023-11-21T04:13:49;4.95;;;2.70;;
78453;SDS011;67750;55.832;49.124;2023-11-21T04:16:18;9.70;;;3.35;;
78453;SDS011;67750;55.832;49.124;2023-11-21T04:18:47;7.65;;;2.58;;
78453;SDS011;67750;55.832;49.124;2023-11-21T04:21:17;8.80;;;2.50;;
78453;SDS011;67750;55.832;49.124;2023-11-21T04:23:46;5.92;;;2.50;;
78453;SDS011;67750;55.832;49.124;2023-11-21T04:26:16;5.40;;;2.42;;
78453;SDS011;67750;55.832;49.124;2023-11-21T04:28:45;5.65;;;2.98;;
78453;SDS011;67750;55.832;49.124;2023-11-21T04:31:15;5.47;;;3.08;;
78453;SDS011;67750;55.832;49.124;2023-11-21T04:33:44;4.75;;;2.77;;
78453;SDS011;67750;55.832;49.124;2023-11-21T04:36:14;4.05;;;2.20;;
78453;SDS011;67750;55.832;49.124;2023-11-21T04:38:43;6.35;;;2.50;;
78453;SDS011;67750;55.832;49.124;2023-11-21T04:41:13;5.62;;;3.10;;
78453;SDS011;67750;55.832;49.124;2023-11-21T04:43:42;7.65;;;2.85;;
78453;SDS011;67750;55.832;49.124;2023-11-21T04:46:12;8.58;;;3.12;;
78453;SDS011;67750;55.832;49.124;2023-11-21T04:48:41;5.08;;;2.75;;
78453;SDS011;67750;55.832;49.124;2023-11-21T04:51:11;5.05;;;2.58;;
78453;SDS011;67750;55.832;49.124;2023-11-21T04:53:40;8.43;;;3.02;;
78453;SDS011;67750;55.832;49.124;2023-11-21T04:56:10;6.65;;;2.70;;
78453;SDS011;67750;55.832;49.124;2023-11-21T04:58:39;5.17;;;2.30;;
78453;SDS011;67750;55.832;49.124;2023-11-21T05:01:09;5.45;;;2.65;;
78453;SDS011;67750;55.832;49.124;2023-11-21T05:03:39;6.37;;;2.85;;
78453;SDS011;67750;55.832;49.124;2023-11-21T05:08:57;4.92;;;2.98;;
78453;SDS011;67750;55.832;49.124;2023-11-21T05:11:27;7.55;;;3.25;;
78453;SDS011;67750;55.832;49.124;2023-11-21T05:13:57;5.92;;;3.08;;
78453;SDS011;67750;55.832;49.124;2023-11-21T05:16:28;4.62;;;2.55;;
78453;SDS011;67750;55.832;49.124;2023-11-21T05:18:58;6.15;;;2.85;;
78453;SDS011;67750;55.832;49.124;2023-11-21T05:21:28;7.50;;;3.08;;
78453;SDS011;67750;55.832;49.124;2023-11-21T05:24:17;6.15;;;2.83;;
78453;SDS011;67750;55.832;49.124;2023-11-21T05:26:47;7.37;;;3.42;;
78453;SDS011;67750;55.832;49.124;2023-11-21T05:29:16;7.00;;;3.30;;
78453;SDS011;67750;55.832;49.124;2023-11-21T05:31:46;6.40;;;3.60;;
78453;SDS011;67750;55.832;49.124;2023-11-21T05:34:15;5.35;;;2.83;;
78453;SDS011;67750;55.832;49.124;2023-11-21T05:36:45;8.73;;;3.67;;
78453;SDS011;67750;55.832;49.124;2023-11-21T05:39:14;4.75;;;2.70;;
78453;SDS011;67750;55.832;49.124;2023-11-21T05:42:04;6.83;;;3.37;;
78453;SDS011;67750;55.832;49.124;2023-11-21T05:44:35;6.08;;;3.30;;
78453;SDS011;67750;55.832;49.124;2023-11-21T05:47:04;6.37;;;3.50;;
78453;SDS011;67750;55.832;49.124;2023-11-21T05:49:34;8.05;;;3.52;;
78453;SDS011;67750;55.832;49.124;2023-11-21T05:52:04;6.33;;;3.17;;
78453;SDS011;67750;55.832;49.124;2023-11-21T05:54:33;6.22;;;3.50;;
78453;SDS011;67750;55.832;49.124;2023-11-21T05:57:03;5.80;;;3.52;;
78453;SDS011;67750;55.832;49.124;2023-11-21T05:59:33;6.78;;;3.42;;
78453;SDS011;67750;55.832;49.124;2023-11-21T06:02:02;5.80;;;3.40;;
78453;SDS011;67750;55.832;49.124;2023-11-21T06:04:32;8.23;;;3.95;;
78453;SDS011;67750;55.832;49.124;2023-11-21T06:07:01;8.15;;;4.08;;
78453;SDS011;67750;55.832;49.124;2023-11-21T06:09:31;10.30;;;3.90;;
78453;SDS011;67750;55.832;49.124;2023-11-21T06:12:02;7.72;;;3.47;;
78453;SDS011;67750;55.832;49.124;2023-11-21T06:14:32;10.45;;;3.90;;
78453;SDS011;67750;55.832;49.124;2023-11-21T06:17:03;8.55;;;3.45;;
78453;SDS011;67750;55.832;49.124;2023-11-21T06:19:32;6.28;;;3.80;;
78453;SDS011;67750;55.832;49.124;2023-11-21T06:22:02;9.18;;;3.90;;
78453;SDS011;67750;55.832;49.124;2023-11-21T06:24:32;6.45;;;3.95;;
78453;SDS011;67750;55.832;49.124;2023-11-21T06:27:03;7.45;;;3.77;;
78453;SDS011;67750;55.832;49.124;2023-11-21T06:29:33;6.55;;;3.08;;
78453;SDS011;67750;55.832;49.124;2023-11-21T06:32:02;6.08;;;3.17;;
78453;SDS011;67750;55.832;49.124;2023-11-21T06:34:32;7.10;;;3.50;;
78453;SDS011;67750;55.832;49.124;2023-11-21T06:37:01;5.75;;;3.27;;
78453;SDS011;67750;55.832;49.124;2023-11-21T06:39:31;6.78;;;2.98;;
78453;SDS011;67750;55.832;49.124;2023-11-21T06:42:00;6.05;;;3.37;;
78453;SDS011;67750;55.832;49.124;2023-11-21T06:44:31;5.15;;;2.92;;
78453;SDS011;67750;55.832;49.124;2023-11-21T06:47:02;8.40;;;3.40;;
78453;SDS011;67750;55.832;49.124;2023-11-21T06:49:32;6.28;;;3.22;;
78453;SDS011;67750;55.832;49.124;2023-11-21T06:52:01;6.03;;;3.60;;
78453;SDS011;67750;55.832;49.124;2023-11-21T06:54:31;5.05;;;3.17;;
78453;SDS011;67750;55.832;49.124;2023-11-21T06:57:00;6.28;;;3.45;;
78453;SDS011;67750;55.832;49.124;2023-11-21T06:59:30;6.65;;;3.67;;
78453;SDS011;67750;55.832;49.124;2023-11-21T07:01:59;7.22;;;4.00;;
78453;SDS011;67750;55.832;49.124;2023-11-21T07:04:29;7.37;;;3.42;;
78453;SDS011;67750;55.832;49.124;2023-11-21T07:06:59;10.15;;;3.77;;
78453;SDS011;67750;55.832;49.124;2023-11-21T07:09:29;6.40;;;3.25;;
78453;SDS011;67750;55.832;49.124;2023-11-21T07:11:59;8.13;;;3.37;;
78453;SDS011;67750;55.832;49.124;2023-11-21T07:14:30;7.45;;;3.35;;
78453;SDS011;67750;55.832;49.124;2023-11-21T07:17:00;5.67;;;3.35;;
78453;SDS011;67750;55.832;49.124;2023-11-21T07:19:29;6.58;;;3.50;;
78453;SDS011;67750;55.832;49.124;2023-11-21T07:21:59;7.45;;;3.85;;
78453;SDS011;67750;55.832;49.124;2023-11-21T07:24:29;6.08;;;3.15;;
78453;SDS011;67750;55.832;49.124;2023-11-21T07:26:58;10.30;;;3.52;;
78453;SDS011;67750;55.832;49.124;2023-11-21T07:29:28;8.83;;;3.52;;
78453;SDS011;67750;55.832;49.124;2023-11-21T07:31:57;6.05;;;3.25;;
78453;SDS011;67750;55.832;49.124;2023-11-21T07:34:27;7.10;;;3.65;;
78453;SDS011;67750;55.832;49.124;2023-11-21T07:36:57;6.05;;;3.62;;
78453;SDS011;67750;55.832;49.124;2023-11-21T07:39:27;6.97;;;3.98;;
78453;SDS011;67750;55.832;49.124;2023-11-21T07:41:57;6.45;;;3.60;;
78453;SDS011;67750;55.832;49.124;2023-11-21T07:44:26;11.38;;;4.05;;
78453;SDS011;67750;55.832;49.124;2023-11-21T07:46:56;10.95;;;4.35;;
78453;SDS011;67750;55.832;49.124;2023-11-21T07:49:25;8.63;;;3.72;;
78453;SDS011;67750;55.832;49.124;2023-11-21T07:51:55;7.17;;;3.40;;
78453;SDS011;67750;55.832;49.124;2023-11-21T07:54:24;7.70;;;4.25;;
78453;SDS011;67750;55.832;49.124;2023-11-21T07:56:54;6.85;;;3.65;;
78453;SDS011;67750;55.832;49.124;2023-11-21T07:59:24;6.47;;;3.22;;
78453;SDS011;67750;55.832;49.124;2023-11-21T08:01:54;7.45;;;3.67;;
78453;SDS011;67750;55.832;49.124;2023-11-21T08:04:23;8.23;;;4.00;;
78453;SDS011;67750;55.832;49.124;2023-11-21T08:06:53;6.28;;;3.95;;
78453;SDS011;67750;55.832;49.124;2023-11-21T08:09:22;7.45;;;4.15;;
78453;SDS011;67750;55.832;49.124;2023-11-21T08:11:52;9.88;;;4.42;;
78453;SDS011;67750;55.832;49.124;2023-11-21T08:14:22;7.30;;;3.80;;
78453;SDS011;67750;55.832;49.124;2023-11-21T08:17:11;9.48;;;4.03;;
78453;SDS011;67750;55.832;49.124;2023-11-21T08:19:41;6.62;;;3.85;;
78453;SDS011;67750;55.832;49.124;2023-11-21T08:22:12;6.37;;;3.30;;
78453;SDS011;67750;55.832;49.124;2023-11-21T08:27:33;7.15;;;3.72;;
78453;SDS011;67750;55.832;49.124;2023-11-21T08:30:03;8.58;;;3.85;;
78453;SDS011;67750;55.832;49.124;2023-11-21T08:32:34;8.15;;;3.70;;
78453;SDS011;67750;55.832;49.124;2023-11-21T08:35:03;6.30;;;3.85;;
78453;SDS011;67750;55.832;49.124;2023-11-21T08:37:33;7.00;;;4.37;;
78453;SDS011;67750;55.832;49.124;2023-11-21T08:40:22;5.83;;;3.52;;
78453;SDS011;67750;55.832;49.124;2023-11-21T08:42:52;7.42;;;3.92;;
78453;SDS011;67750;55.832;49.124;2023-11-21T08:45:21;8.08;;;4.22;;
78453;SDS011;67750;55.832;49.124;2023-11-21T08:47:52;9.23;;;4.08;;
78453;SDS011;67750;55.832;49.124;2023-11-21T08:50:21;6.03;;;3.65;;
78453;SDS011;67750;55.832;49.124;2023-11-21T08:52:51;7.00;;;4.20;;
78453;SDS011;67750;55.832;49.124;2023-11-21T08:55:21;9.10;;;4.20;;
78453;SDS011;67750;55.832;49.124;2023-11-21T08:57:50;8.40;;;4.58;;
78453;SDS011;67750;55.832;49.124;2023-11-21T09:00:20;9.38;;;4.95;;
78453;SDS011;67750;55.832;49.124;2023-11-21T09:02:49;9.28;;;4.95;;
78453;SDS011;67750;55.832;49.124;2023-11-21T09:05:19;9.83;;;4.53;;
78453;SDS011;67750;55.832;49.124;2023-11-21T09:07:49;10.45;;;5.05;;
78453;SDS011;67750;55.832;49.124;2023-11-21T09:10:19;9.25;;;5.28;;
78453;SDS011;67750;55.832;49.124;2023-11-21T09:12:48;9.00;;;5.22;;
78453;SDS011;67750;55.832;49.124;2023-11-21T09:15:19;9.13;;;5.33;;
78453;SDS011;67750;55.832;49.124;2023-11-21T09:17:48;9.18;;;5.05;;
78453;SDS011;67750;55.832;49.124;2023-11-21T09:20:18;17.25;;;5.83;;
78453;SDS011;67750;55.832;49.124;2023-11-21T09:22:49;10.40;;;5.35;;
78453;SDS011;67750;55.832;49.124;2023-11-21T09:25:18;8.78;;;5.42;;
78453;SDS011;67750;55.832;49.124;2023-11-21T09:27:48;10.90;;;5.05;;
78453;SDS011;67750;55.832;49.124;2023-11-21T09:30:17;10.50;;;5.53;;
78453;SDS011;67750;55.832;49.124;2023-11-21T09:32:47;7.65;;;4.60;;
78453;SDS011;67750;55.832;49.124;2023-11-21T09:35:17;6.65;;;3.80;;
78453;SDS011;67750;55.832;49.124;2023-11-21T09:37:46;7.20;;;4.15;;
78453;SDS011;67750;55.832;49.124;2023-11-21T09:40:17;8.35;;;4.80;;
78453;SDS011;67750;55.832;49.124;2023-11-21T09:45:40;9.50;;;4.45;;
78453;SDS011;67750;55.832;49.124;2023-11-21T09:48:10;8.75;;;4.37;;
78453;SDS011;67750;55.832;49.124;2023-11-21T09:50:41;8.80;;;4.65;;
78453;SDS011;67750;55.832;49.124;2023-11-21T09:56:00;8.23;;;5.17;;
78453;SDS011;67750;55.832;49.124;2023-11-21T09:58:30;8.98;;;5.03;;
78453;SDS011;67750;55.832;49.124;2023-11-21T10:01:01;9.13;;;5.05;;
78453;SDS011;67750;55.832;49.124;2023-11-21T10:03:35;10.88;;;5.08;;
78453;SDS011;67750;55.832;49.124;2023-11-21T10:06:05;9.73;;;5.42;;
78453;SDS011;67750;55.832;49.124;2023-11-21T10:08:35;10.15;;;5.53;;
78453;SDS011;67750;55.832;49.124;2023-11-21T10:11:05;17.25;;;5.92;;
78453;SDS011;67750;55.832;49.124;2023-11-21T10:13:37;12.43;;;5.30;;
78453;SDS011;67750;55.832;49.124;2023-11-21T10:16:08;11.22;;;4.95;;
78453;SDS011;67750;55.832;49.124;2023-11-21T10:18:40;8.80;;;4.67;;
78453;SDS011;67750;55.832;49.124;2023-11-21T10:21:11;10.75;;;5.45;;
78453;SDS011;67750;55.832;49.124;2023-11-21T10:23:41;11.48;;;5.62;;
78453;SDS011;67750;55.832;49.124;2023-11-21T10:26:11;11.03;;;5.97;;
78453;SDS011;67750;55.832;49.124;2023-11-21T10:29:01;12.55;;;6.62;;
78453;SDS011;67750;55.832;49.124;2023-11-21T10:31:31;12.65;;;6.22;;
78453;SDS011;67750;55.832;49.124;2023-11-21T10:36:51;11.90;;;6.95;;
78453;SDS011;67750;55.832;49.124;2023-11-21T10:39:20;13.03;;;6.62;;
78453;SDS011;67750;55.832;49.124;2023-11-21T10:41:50;10.58;;;5.90;;
78453;SDS011;67750;55.832;49.124;2023-11-21T10:44:21;13.48;;;6.50;;
78453;SDS011;67750;55.832;49.124;2023-11-21T10:46:54;10.03;;;5.62;;
78453;SDS011;67750;55.832;49.124;2023-11-21T10:52:14;11.97;;;6.22;;
78453;SDS011;67750;55.832;49.124;2023-11-21T10:54:45;11.12;;;5.85;;
78453;SDS011;67750;55.832;49.124;2023-11-21T10:57:17;10.88;;;6.00;;
78453;SDS011;67750;55.832;49.124;2023-11-21T10:59:46;12.00;;;6.70;;
78453;SDS011;67750;55.832;49.124;2023-11-21T11:05:06;9.45;;;5.53;;
78453;SDS011;67750;55.832;49.124;2023-11-21T11:07:37;11.30;;;4.92;;
78453;SDS011;67750;55.832;49.124;2023-11-21T11:10:08;8.08;;;4.87;;
78453;SDS011;67750;55.832;49.124;2023-11-21T11:12:40;9.98;;;5.28;;
78453;SDS011;67750;55.832;49.124;2023-11-21T11:15:10;12.00;;;6.00;;
78453;SDS011;67750;55.832;49.124;2023-11-21T11:17:40;14.78;;;6.20;;
78453;SDS011;67750;55.832;49.124;2023-11-21T11:20:11;8.88;;;5.47;;
78453;SDS011;67750;55.832;49.124;2023-11-21T11:28:59;10.68;;;5.42;;
78453;SDS011;67750;55.832;49.124;2023-11-21T11:36:36;12.47;;;5.55;;
78453;SDS011;67750;55.832;49.124;2023-11-21T11:41:58;9.93;;;5.08;;
78453;SDS011;67750;55.832;49.124;2023-11-21T11:47:38;10.85;;;4.60;;
78453;SDS011;67750;55.832;49.124;2023-11-21T11:50:08;9.33;;;4.87;;
78453;SDS011;67750;55.832;49.124;2023-11-21T11:53:35;10.85;;;5.30;;
78453;SDS011;67750;55.832;49.124;2023-11-21T11:55:29;10.48;;;5.45;;
78453;SDS011;67750;55.832;49.124;2023-11-21T11:57:59;9.28;;;4.97;;
78453;SDS011;67750;55.832;49.124;2023-11-21T12:00:33;10.38;;;4.70;;
78453;SDS011;67750;55.832;49.124;2023-11-21T12:03:01;9.83;;;5.78;;
78453;SDS011;67750;55.832;49.124;2023-11-21T12:05:32;8.65;;;5.17;;
78453;SDS011;67750;55.832;49.124;2023-11-21T12:08:22;11.12;;;4.97;;
78453;SDS011;67750;55.832;49.124;2023-11-21T12:10:53;9.83;;;5.28;;
78453;SDS011;67750;55.832;49.124;2023-11-21T12:13:24;11.00;;;5.55;;
78453;SDS011;67750;55.832;49.124;2023-11-21T12:15:54;9.08;;;4.95;;
78453;SDS011;67750;55.832;49.124;2023-11-21T12:18:23;7.97;;;4.80;;
78453;SDS011;67750;55.832;49.124;2023-11-21T12:20:53;9.03;;;4.72;;
78453;SDS011;67750;55.832;49.124;2023-11-21T12:23:23;8.68;;;4.92;;
78453;SDS011;67750;55.832;49.124;2023-11-21T12:25:53;10.65;;;4.97;;
78453;SDS011;67750;55.832;49.124;2023-11-21T12:28:23;8.38;;;4.60;;
78453;SDS011;67750;55.832;49.124;2023-11-21T12:30:52;10.23;;;4.85;;
78453;SDS011;67750;55.832;49.124;2023-11-21T12:33:23;11.33;;;6.45;;
78453;SDS011;67750;55.832;49.124;2023-11-21T12:35:53;9.73;;;4.47;;
78453;SDS011;67750;55.832;49.124;2023-11-21T12:38:24;9.95;;;5.05;;
78453;SDS011;67750;55.832;49.124;2023-11-21T12:40:54;9.55;;;5.75;;
78453;SDS011;67750;55.832;49.124;2023-11-21T12:43:24;9.78;;;5.33;;
78453;SDS011;67750;55.832;49.124;2023-11-21T12:48:44;9.73;;;5.12;;
78453;SDS011;67750;55.832;49.124;2023-11-21T12:51:14;8.38;;;4.40;;
78453;SDS011;67750;55.832;49.124;2023-11-21T12:53:45;8.93;;;4.55;;
78453;SDS011;67750;55.832;49.124;2023-11-21T12:56:15;9.68;;;4.92;;
78453;SDS011;67750;55.832;49.124;2023-11-21T12:58:45;9.35;;;4.80;;
78453;SDS011;67750;55.832;49.124;2023-11-21T13:01:15;9.23;;;4.58;;
78453;SDS011;67750;55.832;49.124;2023-11-21T13:03:46;8.58;;;4.58;;
78453;SDS011;67750;55.832;49.124;2023-11-21T13:08:46;8.33;;;4.83;;
78453;SDS011;67750;55.832;49.124;2023-11-21T13:11:16;8.13;;;4.67;;
78453;SDS011;67750;55.832;49.124;2023-11-21T13:13:46;7.15;;;4.03;;
78453;SDS011;67750;55.832;49.124;2023-11-21T13:16:16;10.20;;;4.17;;
78453;SDS011;67750;55.832;49.124;2023-11-21T13:18:47;10.13;;;4.70;;
78453;SDS011;67750;55.832;49.124;2023-11-21T13:21:17;9.75;;;4.92;;
78453;SDS011;67750;55.832;49.124;2023-11-21T13:23:48;10.38;;;5.20;;
78453;SDS011;67750;55.832;49.124;2023-11-21T13:26:19;11.75;;;4.53;;
78453;SDS011;67750;55.832;49.124;2023-11-21T13:28:51;10.38;;;4.97;;
78453;SDS011;67750;55.832;49.124;2023-11-21T13:31:20;10.85;;;5.03;;
78453;SDS011;67750;55.832;49.124;2023-11-21T13:33:51;9.20;;;4.58;;
78453;SDS011;67750;55.832;49.124;2023-11-21T13:36:41;12.20;;;4.72;;
78453;SDS011;67750;55.832;49.124;2023-11-21T13:39:11;12.47;;;5.15;;
78453;SDS011;67750;55.832;49.124;2023-11-21T13:41:42;13.48;;;5.08;;
78453;SDS011;67750;55.832;49.124;2023-11-21T13:44:13;8.50;;;4.47;;
78453;SDS011;67750;55.832;49.124;2023-11-21T13:46:44;10.82;;;4.90;;
78453;SDS011;67750;55.832;49.124;2023-11-21T13:49:14;10.53;;;4.78;;
78453;SDS011;67750;55.832;49.124;2023-11-21T13:51:43;11.78;;;5.20;;
78453;SDS011;67750;55.832;49.124;2023-11-21T13:54:14;10.00;;;4.17;;
78453;SDS011;67750;55.832;49.124;2023-11-21T13:56:45;7.10;;;4.08;;
78453;SDS011;67750;55.832;49.124;2023-11-21T13:59:17;8.53;;;4.20;;
78453;SDS011;67750;55.832;49.124;2023-11-21T14:02:06;8.83;;;4.12;;
78453;SDS011;67750;55.832;49.124;2023-11-21T14:04:57;8.58;;;4.60;;
78453;SDS011;67750;55.832;49.124;2023-11-21T14:07:28;6.55;;;3.52;;
78453;SDS011;67750;55.832;49.124;2023-11-21T14:10:17;7.70;;;3.83;;
78453;SDS011;67750;55.832;49.124;2023-11-21T14:12:48;8.33;;;3.83;;
78453;SDS011;67750;55.832;49.124;2023-11-21T14:15:19;6.87;;;3.42;;
78453;SDS011;67750;55.832;49.124;2023-11-21T14:17:49;9.73;;;4.03;;
78453;SDS011;67750;55.832;49.124;2023-11-21T14:20:19;8.10;;;3.75;;
78453;SDS011;67750;55.832;49.124;2023-11-21T14:22:49;7.40;;;3.98;;
78453;SDS011;67750;55.832;49.124;2023-11-21T14:25:19;7.50;;;3.92;;
78453;SDS011;67750;55.832;49.124;2023-11-21T14:27:49;10.43;;;4.30;;
78453;SDS011;67750;55.832;49.124;2023-11-21T14:30:19;8.50;;;4.03;;
78453;SDS011;67750;55.832;49.124;2023-11-21T14:32:49;8.10;;;3.77;;
78453;SDS011;67750;55.832;49.124;2023-11-21T14:35:19;8.83;;;3.60;;
78453;SDS011;67750;55.832;49.124;2023-11-21T14:37:48;9.35;;;3.90;;
78453;SDS011;67750;55.832;49.124;2023-11-21T14:40:20;8.83;;;4.12;;
78453;SDS011;67750;55.832;49.124;2023-11-21T14:42:51;7.28;;;3.30;;
78453;SDS011;67750;55.832;49.124;2023-11-21T14:45:22;8.38;;;3.60;;
78453;SDS011;67750;55.832;49.124;2023-11-21T14:47:53;8.40;;;4.22;;
78453;SDS011;67750;55.832;49.124;2023-11-21T14:50:42;6.67;;;3.80;;
78453;SDS011;67750;55.832;49.124;2023-11-21T14:53:32;7.40;;;3.92;;
78453;SDS011;67750;55.832;49.124;2023-11-21T14:56:21;8.08;;;3.90;;
78453;SDS011;67750;55.832;49.124;2023-11-21T14:59:10;7.33;;;3.58;;
78453;SDS011;67750;55.832;49.124;2023-11-21T15:01:41;9.03;;;4.17;;
78453;SDS011;67750;55.832;49.124;2023-11-21T15:04:31;7.17;;;3.62;;
78453;SDS011;67750;55.832;49.124;2023-11-21T15:07:02;9.40;;;4.10;;
78453;SDS011;67750;55.832;49.124;2023-11-21T15:09:32;13.60;;;5.42;;
78453;SDS011;67750;55.832;49.124;2023-11-21T15:12:04;9.48;;;3.52;;
78453;SDS011;67750;55.832;49.124;2023-11-21T15:14:54;8.10;;;4.22;;
78453;SDS011;67750;55.832;49.124;2023-11-21T15:17:24;9.75;;;4.70;;
78453;SDS011;67750;55.832;49.124;2023-11-21T15:19:55;8.70;;;4.20;;
78453;SDS011;67750;55.832;49.124;2023-11-21T15:22:27;8.95;;;4.05;;
78453;SDS011;67750;55.832;49.124;2023-11-21T15:24:56;7.72;;;3.85;;
78453;SDS011;67750;55.832;49.124;2023-11-21T15:27:27;8.90;;;3.62;;
78453;SDS011;67750;55.832;49.124;2023-11-21T15:29:57;9.95;;;4.95;;
78453;SDS011;67750;55.832;49.124;2023-11-21T15:32:26;9.38;;;4.22;;
78453;SDS011;67750;55.832;49.124;2023-11-21T15:34:55;7.25;;;3.67;;
78453;SDS011;67750;55.832;49.124;2023-11-21T15:37:25;7.58;;;3.90;;
78453;SDS011;67750;55.832;49.124;2023-11-21T15:39:56;8.20;;;4.47;;